createdAt,value
2019-05-29T00:00:01.113Z,18
2019-05-29T00:01:01.090Z,19
2019-05-29T00:03:01.089Z,18
2019-05-29T00:04:01.128Z,17
2019-05-29T00:06:01.095Z,14
2019-05-29T00:07:02.036Z,16
2019-05-29T00:08:01.092Z,15
2019-05-29T00:09:01.119Z,16
2019-05-29T00:11:01.087Z,19
2019-05-29T00:12:01.098Z,18
2019-05-29T00:13:01.088Z,19
2019-05-29T00:14:15.518Z,20
2019-05-29T00:15:01.092Z,20
2019-05-29T00:16:01.091Z,18
2019-05-29T00:18:01.095Z,16
2019-05-29T00:19:01.101Z,14
2019-05-29T00:20:01.090Z,15
2019-05-29T00:21:01.234Z,16
2019-05-29T00:22:01.089Z,17
2019-05-29T00:24:01.089Z,18
2019-05-29T00:25:01.092Z,17
2019-05-29T00:28:02.542Z,18
2019-05-29T00:29:01.093Z,17
2019-05-29T00:30:01.095Z,17
2019-05-29T00:32:01.092Z,16
2019-05-29T00:36:01.094Z,15
2019-05-29T00:37:01.096Z,16
2019-05-29T00:38:01.093Z,15
2019-05-29T00:42:01.098Z,14
2019-05-29T00:43:01.118Z,15
2019-05-29T00:45:01.099Z,14
2019-05-29T00:46:01.098Z,15
2019-05-29T00:50:01.119Z,16
2019-05-29T00:51:01.095Z,14
2019-05-29T00:52:01.101Z,17
2019-05-29T00:53:01.095Z,18
2019-05-29T00:54:01.134Z,19
2019-05-29T00:55:01.096Z,17
2019-05-29T00:56:01.101Z,18
2019-05-29T00:57:01.096Z,16
2019-05-29T01:00:01.141Z,16
2019-05-29T01:02:01.106Z,15
2019-05-29T01:08:01.107Z,16
2019-05-29T01:10:01.085Z,14
2019-05-29T01:12:01.085Z,15
2019-05-29T01:13:01.187Z,14
2019-05-29T01:14:01.089Z,16
2019-05-29T01:15:01.090Z,15
2019-05-29T01:16:01.083Z,18
2019-05-29T01:17:01.083Z,17
2019-05-29T01:18:01.115Z,18
2019-05-29T01:20:01.083Z,19
2019-05-29T01:23:01.090Z,18
2019-05-29T01:24:01.084Z,17
2019-05-29T01:25:01.095Z,18
2019-05-29T01:27:01.085Z,16
2019-05-29T01:28:01.089Z,17
2019-05-29T01:30:01.087Z,15
2019-05-29T01:31:01.087Z,16
2019-05-29T01:33:01.086Z,15
2019-05-29T01:34:01.092Z,14
2019-05-29T01:35:01.086Z,16
2019-05-29T01:38:01.088Z,18
2019-05-29T01:39:01.641Z,19
2019-05-29T01:40:01.090Z,18
2019-05-29T01:42:01.089Z,19
2019-05-29T01:43:01.086Z,18
2019-05-29T01:44:01.091Z,17
2019-05-29T01:45:07.507Z,19
2019-05-29T01:46:02.087Z,17
2019-05-29T01:47:01.092Z,19
2019-05-29T01:48:01.087Z,17
2019-05-29T01:50:01.089Z,16
2019-05-29T01:52:01.095Z,13
2019-05-29T01:53:01.139Z,16
2019-05-29T01:54:01.094Z,17
2019-05-29T01:56:01.089Z,18
2019-05-29T01:57:01.098Z,19
2019-05-29T01:58:01.128Z,17
2019-05-29T01:59:01.102Z,16
2019-05-29T02:00:01.110Z,16
2019-05-29T02:01:01.100Z,15
2019-05-29T02:02:01.096Z,16
2019-05-29T02:03:01.132Z,17
2019-05-29T02:04:01.098Z,18
2019-05-29T02:05:01.120Z,19
2019-05-29T02:06:01.099Z,18
2019-05-29T02:07:01.723Z,17
2019-05-29T02:08:01.129Z,18
2019-05-29T02:09:01.105Z,17
2019-05-29T02:11:01.094Z,18
2019-05-29T02:12:01.102Z,17
2019-05-29T02:13:01.143Z,16
2019-05-29T02:15:01.103Z,16
2019-05-29T02:16:01.100Z,17
2019-05-29T02:17:01.099Z,19
2019-05-29T02:18:01.135Z,17
2019-05-29T02:19:01.104Z,16
2019-05-29T02:20:01.107Z,14
2019-05-29T02:21:01.102Z,15
2019-05-29T02:23:01.149Z,17
2019-05-29T02:24:01.101Z,18
2019-05-29T02:25:01.108Z,17
2019-05-29T02:26:01.097Z,16
2019-05-29T02:27:01.100Z,15
2019-05-29T02:28:01.125Z,14
2019-05-29T02:29:01.104Z,16
2019-05-29T02:30:01.121Z,18
2019-05-29T02:31:01.107Z,19
2019-05-29T02:34:01.632Z,17
2019-05-29T02:35:01.118Z,18
2019-05-29T02:36:01.102Z,16
2019-05-29T02:37:01.097Z,15
2019-05-29T02:39:01.099Z,16
2019-05-29T02:40:06.100Z,15
2019-05-29T02:41:01.114Z,17
2019-05-29T02:42:01.098Z,18
2019-05-29T02:43:01.104Z,19
2019-05-29T02:44:01.100Z,17
2019-05-29T02:45:06.113Z,17
2019-05-29T02:47:01.100Z,16
2019-05-29T02:52:01.089Z,15
2019-05-29T02:54:01.085Z,16
2019-05-29T02:55:01.086Z,17
2019-05-29T02:57:01.088Z,16
2019-05-29T02:58:01.086Z,17
2019-05-29T02:59:01.096Z,15
2019-05-29T03:00:01.102Z,14
2019-05-29T03:01:01.087Z,15
2019-05-29T03:03:01.096Z,17
2019-05-29T03:04:01.086Z,18
2019-05-29T03:05:01.090Z,20
2019-05-29T03:06:01.088Z,19
2019-05-29T03:08:01.086Z,18
2019-05-29T03:10:01.104Z,17
2019-05-29T03:13:01.089Z,18
2019-05-29T03:14:01.087Z,17
2019-05-29T03:15:01.111Z,18
2019-05-29T03:16:10.277Z,19
2019-05-29T03:17:01.088Z,17
2019-05-29T03:19:01.094Z,19
2019-05-29T03:21:02.153Z,18
2019-05-29T03:22:01.099Z,20
2019-05-29T03:23:01.090Z,19
2019-05-29T03:24:01.090Z,18
2019-05-29T03:25:01.090Z,17
2019-05-29T03:26:01.091Z,16
2019-05-29T03:27:01.093Z,14
2019-05-29T03:28:01.091Z,15
2019-05-29T03:30:01.094Z,15
2019-05-29T03:31:01.097Z,16
2019-05-29T03:33:01.096Z,14
2019-05-29T03:36:01.096Z,15
2019-05-29T03:38:01.126Z,17
2019-05-29T03:43:01.097Z,15
2019-05-29T03:44:02.472Z,14
2019-05-29T03:45:01.127Z,14
2019-05-29T03:47:01.098Z,15
2019-05-29T03:48:01.114Z,14
2019-05-29T03:49:01.098Z,17
2019-05-29T03:51:01.101Z,18
2019-05-29T03:52:01.099Z,16
2019-05-29T03:53:01.106Z,17
2019-05-29T03:54:01.100Z,16
2019-05-29T03:55:01.142Z,17
2019-05-29T03:56:01.102Z,16
2019-05-29T03:58:01.086Z,18
2019-05-29T03:59:01.087Z,17
2019-05-29T04:00:01.087Z,16
2019-05-29T04:01:01.085Z,17
2019-05-29T04:02:01.089Z,19
2019-05-29T04:03:01.086Z,18
2019-05-29T04:04:01.086Z,19
2019-05-29T04:05:01.089Z,20
2019-05-29T04:06:01.086Z,18
2019-05-29T04:07:01.090Z,17
2019-05-29T04:08:01.110Z,19
2019-05-29T04:09:01.088Z,17
2019-05-29T04:10:02.100Z,15
2019-05-29T04:11:01.104Z,16
2019-05-29T04:13:01.121Z,14
2019-05-29T04:15:01.089Z,16
2019-05-29T04:16:01.105Z,18
2019-05-29T04:20:01.091Z,17
2019-05-29T04:21:01.092Z,16
2019-05-29T04:30:01.092Z,16
2019-05-29T04:31:01.095Z,17
2019-05-29T04:32:02.233Z,18
2019-05-29T04:35:01.157Z,19
2019-05-29T04:36:01.090Z,16
2019-05-29T04:37:01.090Z,17
2019-05-29T04:40:01.100Z,16
2019-05-29T04:42:01.122Z,14
2019-05-29T04:43:01.140Z,15
2019-05-29T04:44:01.103Z,14
2019-05-29T04:45:01.106Z,15
2019-05-29T04:46:01.100Z,14
2019-05-29T04:47:10.718Z,15
2019-05-29T04:50:01.111Z,16
2019-05-29T04:51:01.105Z,17
2019-05-29T04:52:01.111Z,16
2019-05-29T04:53:01.140Z,15
2019-05-29T04:55:01.102Z,16
2019-05-29T04:56:01.104Z,15
2019-05-29T04:57:01.104Z,18
2019-05-29T04:58:01.126Z,19
2019-05-29T04:59:01.096Z,20
2019-05-29T05:00:01.106Z,19
2019-05-29T05:03:01.112Z,17
2019-05-29T05:05:01.105Z,16
2019-05-29T05:06:01.105Z,17
2019-05-29T05:07:01.118Z,16
2019-05-29T05:09:01.096Z,17
2019-05-29T05:11:01.556Z,18
2019-05-29T05:12:01.119Z,17
2019-05-29T05:13:01.096Z,18
2019-05-29T05:14:01.805Z,16
2019-05-29T05:15:01.107Z,15
2019-05-29T05:16:01.095Z,16
2019-05-29T05:17:01.117Z,17
2019-05-29T05:18:01.094Z,18
2019-05-29T05:21:01.095Z,15
2019-05-29T05:22:01.119Z,17
2019-05-29T05:24:01.100Z,19
2019-05-29T05:26:01.100Z,20
2019-05-29T05:27:01.130Z,18
2019-05-29T05:28:01.097Z,16
2019-05-29T05:29:01.102Z,15
2019-05-29T05:30:01.117Z,17
2019-05-29T05:31:01.097Z,18
2019-05-29T05:32:06.101Z,17
2019-05-29T05:33:01.102Z,18
2019-05-29T05:35:01.098Z,17
2019-05-29T05:36:01.098Z,16
2019-05-29T05:37:01.129Z,18
2019-05-29T05:38:01.100Z,19
2019-05-29T05:40:01.102Z,22
2019-05-29T05:42:02.183Z,21
2019-05-29T05:43:01.117Z,20
2019-05-29T05:44:01.100Z,18
2019-05-29T05:45:01.105Z,16
2019-05-29T05:46:01.101Z,17
2019-05-29T05:49:01.109Z,18
2019-05-29T05:50:01.085Z,17
2019-05-29T05:51:01.084Z,18
2019-05-29T05:52:01.089Z,16
2019-05-29T05:54:01.176Z,15
2019-05-29T05:55:01.088Z,16
2019-05-29T05:56:01.086Z,15
2019-05-29T05:57:01.092Z,14
2019-05-29T05:58:01.109Z,15
2019-05-29T05:59:01.093Z,14
2019-05-29T06:00:01.086Z,14
2019-05-29T06:02:02.571Z,15
2019-05-29T06:04:01.108Z,14
2019-05-29T06:07:01.093Z,13
2019-05-29T06:08:01.117Z,14
2019-05-29T06:09:01.093Z,15
2019-05-29T06:10:01.095Z,18
2019-05-29T06:11:01.089Z,19
2019-05-29T06:12:01.095Z,20
2019-05-29T06:13:01.122Z,19
2019-05-29T06:15:01.096Z,18
2019-05-29T06:17:01.089Z,17
2019-05-29T06:18:19.716Z,18
2019-05-29T06:19:01.062Z,19
2019-05-29T06:20:01.091Z,18
2019-05-29T06:23:01.129Z,19
2019-05-29T06:24:01.097Z,18
2019-05-29T06:25:01.102Z,17
2019-05-29T06:26:01.090Z,18
2019-05-29T06:27:01.090Z,17
2019-05-29T06:29:01.121Z,19
2019-05-29T06:30:01.165Z,19
2019-05-29T06:31:01.102Z,18
2019-05-29T06:33:01.123Z,19
2019-05-29T06:34:01.093Z,17
2019-05-29T06:35:01.092Z,15
2019-05-29T06:36:01.095Z,14
2019-05-29T06:38:01.095Z,13
2019-05-29T06:39:01.118Z,12
2019-05-29T06:40:01.096Z,14
2019-05-29T06:41:01.383Z,15
2019-05-29T06:43:01.104Z,16
2019-05-29T06:44:01.183Z,17
2019-05-29T06:45:01.480Z,17
2019-05-29T06:48:01.102Z,16
2019-05-29T06:49:01.274Z,15
2019-05-29T06:52:01.100Z,16
2019-05-29T06:56:02.236Z,17
2019-05-29T06:57:01.097Z,15
2019-05-29T07:00:01.111Z,15
2019-05-29T07:03:01.139Z,14
2019-05-29T07:04:11.664Z,16
2019-05-29T07:05:01.100Z,17
2019-05-29T07:07:01.776Z,16
2019-05-29T07:08:16.305Z,17
2019-05-29T07:09:01.095Z,14
2019-05-29T07:10:01.102Z,13
2019-05-29T07:12:01.084Z,15
2019-05-29T07:13:01.085Z,18
2019-05-29T07:15:01.094Z,18
2019-05-29T07:17:01.087Z,17
2019-05-29T07:18:01.089Z,16
2019-05-29T07:36:02.137Z,10
2019-05-29T07:38:00.545Z,12
2019-05-29T07:39:03.439Z,11
2019-05-29T07:40:00.540Z,13
2019-05-29T07:41:00.542Z,14
2019-05-29T07:43:00.559Z,16
2019-05-29T07:44:00.550Z,17
2019-05-29T07:45:00.583Z,17
2019-05-29T07:46:00.541Z,18
2019-05-29T07:47:01.047Z,17
2019-05-29T07:48:00.542Z,16
2019-05-29T07:49:00.540Z,15
2019-05-29T07:50:00.562Z,14
2019-05-29T07:51:06.787Z,15
2019-05-29T07:52:01.001Z,17
2019-05-29T07:54:00.538Z,18
2019-05-29T07:55:00.568Z,20
2019-05-29T07:56:00.539Z,19
2019-05-29T07:58:00.543Z,20
2019-05-29T08:00:00.567Z,18
2019-05-29T08:01:11.477Z,19
2019-05-29T08:02:00.969Z,17
2019-05-29T08:04:00.543Z,18
2019-05-29T08:05:00.566Z,19
2019-05-29T08:06:00.543Z,17
2019-05-29T08:07:00.540Z,18
2019-05-29T08:09:00.568Z,16
2019-05-29T08:10:00.547Z,18
2019-05-29T08:11:00.647Z,20
2019-05-29T08:13:00.547Z,19
2019-05-29T08:14:00.580Z,18
2019-05-29T08:15:00.546Z,17
2019-05-29T08:17:00.541Z,16
2019-05-29T08:19:02.165Z,18
2019-05-29T08:20:06.726Z,16
2019-05-29T08:22:00.543Z,17
2019-05-29T08:23:00.542Z,16
2019-05-29T08:24:00.547Z,15
2019-05-29T08:27:00.543Z,16
2019-05-29T08:30:00.547Z,19
2019-05-29T08:31:00.546Z,18
2019-05-29T08:32:00.543Z,19
2019-05-29T08:35:00.542Z,17
2019-05-29T08:36:01.010Z,18
2019-05-29T08:39:00.545Z,17
2019-05-29T08:42:20.824Z,14
2019-05-29T08:44:00.508Z,15
2019-05-29T08:45:00.542Z,15
2019-05-29T08:47:09.391Z,17
2019-05-29T08:48:00.539Z,16
2019-05-29T08:49:00.539Z,15
2019-05-29T08:51:00.565Z,16
2019-05-29T08:52:10.876Z,17
2019-05-29T08:54:00.539Z,18
2019-05-29T08:55:00.759Z,17
2019-05-29T08:57:00.562Z,16
2019-05-29T08:58:00.545Z,15
2019-05-29T08:59:00.559Z,16
2019-05-29T09:00:00.540Z,17
2019-05-29T09:02:00.579Z,18
2019-05-29T09:03:00.542Z,21
2019-05-29T09:04:00.541Z,22
2019-05-29T09:05:00.541Z,23
2019-05-29T09:06:08.299Z,22
2019-05-29T09:07:00.575Z,21
2019-05-29T09:08:00.541Z,19
2019-05-29T09:11:00.540Z,20
2019-05-29T09:13:04.639Z,21
2019-05-29T09:15:00.543Z,19
2019-05-29T09:16:00.547Z,18
2019-05-29T09:17:00.539Z,16
2019-05-29T09:19:00.567Z,15
2019-05-29T09:20:00.539Z,16
2019-05-29T09:21:03.097Z,15
2019-05-29T09:23:00.538Z,13
2019-05-29T09:24:00.561Z,14
2019-05-29T09:27:00.538Z,15
2019-05-29T09:28:00.967Z,16
2019-05-29T09:29:00.599Z,18
2019-05-29T09:30:00.547Z,17
2019-05-29T09:32:00.544Z,16
2019-05-29T09:33:00.547Z,18
2019-05-29T09:34:00.574Z,17
2019-05-29T09:35:00.540Z,16
2019-05-29T09:36:01.950Z,18
2019-05-29T09:37:00.550Z,17
2019-05-29T09:38:00.540Z,16
2019-05-29T09:39:00.566Z,15
2019-05-29T09:40:00.971Z,16
2019-05-29T09:41:00.540Z,14
2019-05-29T09:42:00.546Z,18
2019-05-29T09:43:00.562Z,16
2019-05-29T09:44:00.545Z,17
2019-05-29T09:45:00.539Z,17
2019-05-29T09:46:02.238Z,19
2019-05-29T09:47:00.542Z,17
2019-05-29T09:48:00.883Z,18
2019-05-29T09:50:00.542Z,17
2019-05-29T09:51:18.133Z,16
2019-05-29T09:53:02.616Z,15
2019-05-29T09:54:03.253Z,16
2019-05-29T09:56:00.883Z,17
2019-05-29T09:58:00.792Z,18
2019-05-29T09:59:01.803Z,17
2019-05-29T10:00:02.092Z,18
2019-05-29T10:03:01.395Z,19
2019-05-29T10:04:03.317Z,18
2019-05-29T10:05:02.505Z,17
2019-05-29T10:07:02.108Z,19
2019-05-29T10:08:02.311Z,16
2019-05-29T10:09:01.703Z,17
2019-05-29T10:11:05.784Z,16
2019-05-29T10:12:03.927Z,17
2019-05-29T10:13:00.567Z,18
2019-05-29T10:15:00.929Z,18
2019-05-29T10:16:00.911Z,20
2019-05-29T10:19:01.549Z,19
2019-05-29T10:20:00.806Z,21
2019-05-29T10:21:01.253Z,20
2019-05-29T10:23:00.951Z,21
2019-05-29T10:24:01.794Z,20
2019-05-29T10:25:01.905Z,17
2019-05-29T10:26:03.341Z,15
2019-05-29T10:27:01.586Z,14
2019-05-29T10:28:00.577Z,11
2019-05-29T10:29:07.079Z,12
2019-05-29T10:30:00.548Z,14
2019-05-29T10:31:03.607Z,15
2019-05-29T10:32:00.547Z,17
2019-05-29T10:34:00.570Z,19
2019-05-29T10:35:00.748Z,17
2019-05-29T10:36:03.625Z,16
2019-05-29T10:40:00.569Z,15
2019-05-29T10:41:06.537Z,16
2019-05-29T10:42:00.544Z,14
2019-05-29T10:43:00.544Z,15
2019-05-29T10:44:00.582Z,14
2019-05-29T10:45:00.770Z,15
2019-05-29T10:47:00.547Z,16
2019-05-29T10:48:00.774Z,15
2019-05-29T10:49:04.564Z,17
2019-05-29T10:52:14.334Z,15
2019-05-29T10:54:00.986Z,13
2019-05-29T10:56:00.546Z,15
2019-05-29T10:57:00.547Z,18
2019-05-29T10:58:00.545Z,19
2019-05-29T10:59:00.551Z,20
2019-05-29T11:00:00.579Z,21
2019-05-29T11:01:00.546Z,19
2019-05-29T11:02:00.550Z,18
2019-05-29T11:05:00.927Z,19
2019-05-29T11:06:00.550Z,20
2019-05-29T11:07:00.559Z,21
2019-05-29T11:08:00.554Z,18
2019-05-29T11:09:00.546Z,19
2019-05-29T11:10:00.825Z,16
2019-05-29T11:11:00.548Z,15
2019-05-29T11:12:00.640Z,14
2019-05-29T11:13:00.548Z,15
2019-05-29T11:14:00.547Z,13
2019-05-29T11:15:00.578Z,16
2019-05-29T11:16:02.112Z,18
2019-05-29T11:17:00.546Z,17
2019-05-29T11:18:00.549Z,19
2019-05-29T11:20:00.577Z,18
2019-05-29T11:23:00.556Z,16
2019-05-29T11:24:00.549Z,18
2019-05-29T11:25:20.913Z,19
2019-05-29T11:27:00.522Z,21
2019-05-29T11:28:00.546Z,22
2019-05-29T11:29:00.546Z,21
2019-05-29T11:30:00.741Z,19
2019-05-29T11:31:05.850Z,18
2019-05-29T11:32:00.547Z,17
2019-05-29T11:33:01.477Z,16
2019-05-29T11:34:01.984Z,15
2019-05-29T11:35:02.209Z,16
2019-05-29T11:36:09.775Z,15
2019-05-29T11:38:00.548Z,14
2019-05-29T11:40:03.320Z,13
2019-05-29T11:41:23.347Z,15
2019-05-29T11:44:00.534Z,17
2019-05-29T11:45:01.093Z,18
2019-05-29T11:46:01.918Z,16
2019-05-29T11:47:00.545Z,18
2019-05-29T11:48:01.578Z,19
2019-05-29T11:49:00.545Z,16
2019-05-29T11:51:00.566Z,17
2019-05-29T11:53:00.546Z,18
2019-05-29T11:56:01.938Z,17
2019-05-29T11:57:00.547Z,16
2019-05-29T11:58:00.547Z,15
2019-05-29T11:59:00.546Z,16
2019-05-29T12:00:09.252Z,16
2019-05-29T12:02:02.949Z,15
2019-05-29T12:03:01.685Z,16
2019-05-29T12:07:01.537Z,17
2019-05-29T12:09:01.872Z,18
2019-05-29T12:10:04.103Z,19
2019-05-29T12:11:01.534Z,20
2019-05-29T12:12:01.998Z,18
2019-05-29T12:13:01.689Z,19
2019-05-29T12:14:02.259Z,18
2019-05-29T12:15:10.782Z,17
2019-05-29T12:17:00.773Z,19
2019-05-29T12:21:01.567Z,20
2019-05-29T12:22:00.643Z,19
2019-05-29T12:23:22.714Z,18
2019-05-29T12:24:00.521Z,19
2019-05-29T12:25:00.710Z,18
2019-05-29T12:29:07.060Z,17
2019-05-29T12:30:00.876Z,16
2019-05-29T12:32:02.127Z,14
2019-05-29T12:34:11.872Z,16
2019-05-29T12:35:01.103Z,17
2019-05-29T12:36:01.232Z,18
2019-05-29T12:37:01.841Z,19
2019-05-29T12:39:02.142Z,18
2019-05-29T12:41:01.762Z,17
2019-05-29T12:44:01.604Z,16
2019-05-29T12:45:01.996Z,15
2019-05-29T12:48:04.001Z,14
2019-05-29T12:49:01.681Z,17
2019-05-29T12:52:03.492Z,18
2019-05-29T12:53:01.729Z,19
2019-05-29T12:54:00.571Z,18
2019-05-29T12:55:02.291Z,19
2019-05-29T12:56:00.807Z,20
2019-05-29T12:58:02.185Z,18
2019-05-29T12:59:01.213Z,17
2019-05-29T13:00:00.571Z,17
2019-05-29T13:01:00.825Z,16
2019-05-29T13:03:00.814Z,17
2019-05-29T13:06:00.547Z,18
2019-05-29T13:07:00.947Z,16
2019-05-29T13:10:00.596Z,15
2019-05-29T13:11:00.567Z,16
2019-05-29T13:12:01.072Z,17
2019-05-29T13:15:00.767Z,17
2019-05-29T13:16:00.885Z,16
2019-05-29T13:17:00.991Z,15
2019-05-29T13:18:05.484Z,16
2019-05-29T13:19:01.024Z,15
2019-05-29T13:20:07.910Z,18
2019-05-29T13:23:02.719Z,19
2019-05-29T13:24:02.252Z,20
2019-05-29T13:25:01.271Z,19
2019-05-29T13:26:01.445Z,18
2019-05-29T13:29:01.652Z,19
2019-05-29T13:30:03.524Z,18
2019-05-29T13:32:02.389Z,20
2019-05-29T13:34:00.547Z,18
2019-05-29T13:35:02.121Z,21
2019-05-29T13:36:00.547Z,22
2019-05-29T13:37:03.722Z,18
2019-05-29T13:40:00.767Z,15
2019-05-29T13:43:06.812Z,16
2019-05-29T13:44:00.931Z,17
2019-05-29T13:45:04.942Z,20
2019-05-29T13:46:02.547Z,19
2019-05-29T13:47:01.835Z,21
2019-05-29T13:48:01.336Z,19
2019-05-29T13:49:00.992Z,17
2019-05-29T13:50:05.444Z,16
2019-05-29T13:51:01.605Z,17
2019-05-29T13:53:01.242Z,19
2019-05-29T13:54:06.321Z,18
2019-05-29T13:55:01.385Z,17
2019-05-29T13:56:01.744Z,18
2019-05-29T13:57:01.156Z,19
2019-05-29T13:58:01.627Z,20
2019-05-29T13:59:01.920Z,21
2019-05-29T14:00:04.625Z,21
2019-05-29T14:01:02.434Z,19
2019-05-29T14:03:00.556Z,17
2019-05-29T14:04:00.553Z,16
2019-05-29T14:05:00.660Z,17
2019-05-29T14:06:00.868Z,18
2019-05-29T14:07:00.552Z,16
2019-05-29T14:08:02.710Z,17
2019-05-29T14:09:00.861Z,20
2019-05-29T14:10:00.999Z,18
2019-05-29T14:11:00.845Z,19
2019-05-29T14:13:00.986Z,18
2019-05-29T14:14:01.242Z,17
2019-05-29T14:15:00.850Z,17
2019-05-29T14:17:00.553Z,19
2019-05-29T14:19:00.931Z,17
2019-05-29T14:20:00.599Z,18
2019-05-29T14:22:01.110Z,17
2019-05-29T14:23:01.232Z,16
2019-05-29T14:25:01.166Z,15
2019-05-29T14:26:00.557Z,14
2019-05-29T14:27:01.550Z,15
2019-05-29T14:30:01.084Z,17
2019-05-29T14:32:01.001Z,16
2019-05-29T14:33:02.305Z,18
2019-05-29T14:34:00.909Z,19
2019-05-29T14:37:03.153Z,18
2019-05-29T14:39:01.563Z,16
2019-05-29T14:40:03.518Z,15
2019-05-29T14:41:01.689Z,14
2019-05-29T14:42:01.689Z,13
2019-05-29T14:43:01.709Z,15
2019-05-29T14:44:01.681Z,17
2019-05-29T14:45:02.041Z,17
2019-05-29T14:46:01.806Z,20
2019-05-29T14:47:01.783Z,21
2019-05-29T14:48:02.041Z,20
2019-05-29T14:51:00.586Z,19
2019-05-29T14:52:00.555Z,17
2019-05-29T14:53:00.557Z,15
2019-05-29T14:55:00.563Z,17
2019-05-29T14:59:00.559Z,18
2019-05-29T15:00:01.249Z,15
2019-05-29T15:02:00.561Z,16
2019-05-29T15:07:00.563Z,17
2019-05-29T15:08:00.567Z,16
2019-05-29T15:09:00.558Z,18
2019-05-29T15:11:00.578Z,20
2019-05-29T15:12:00.566Z,18
2019-05-29T15:14:00.561Z,16
2019-05-29T15:15:00.596Z,16
2019-05-29T15:16:00.580Z,15
2019-05-29T15:17:00.557Z,16
2019-05-29T15:18:00.568Z,15
2019-05-29T15:19:00.559Z,17
2019-05-29T15:20:00.561Z,16
2019-05-29T15:21:00.582Z,17
2019-05-29T15:22:00.560Z,18
2019-05-29T15:23:00.649Z,19
2019-05-29T15:24:00.657Z,18
2019-05-29T15:25:10.846Z,20
2019-05-29T15:26:00.591Z,21
2019-05-29T15:28:00.559Z,20
2019-05-29T15:29:00.558Z,22
2019-05-29T15:30:00.560Z,20
2019-05-29T15:31:00.591Z,18
2019-05-29T15:32:01.289Z,19
2019-05-29T15:34:00.565Z,18
2019-05-29T15:35:00.561Z,21
2019-05-29T15:36:00.595Z,20
2019-05-29T15:40:00.563Z,17
2019-05-29T15:43:00.560Z,18
2019-05-29T15:45:00.567Z,19
2019-05-29T15:47:00.561Z,18
2019-05-29T15:52:00.574Z,19
2019-05-29T15:53:00.566Z,21
2019-05-29T15:56:16.649Z,22
2019-05-29T15:57:01.727Z,21
2019-05-29T15:58:00.563Z,19
2019-05-29T16:00:00.564Z,19
2019-05-29T16:01:00.565Z,18
2019-05-29T16:02:00.571Z,17
2019-05-29T16:05:00.593Z,18
2019-05-29T16:06:00.562Z,17
2019-05-29T16:09:00.689Z,16
2019-05-29T16:10:00.562Z,14
2019-05-29T16:11:00.565Z,16
2019-05-29T16:13:00.565Z,17
2019-05-29T16:14:00.599Z,18
2019-05-29T16:15:00.915Z,19
2019-05-29T16:16:00.763Z,18
2019-05-29T16:17:00.576Z,19
2019-05-29T16:20:00.595Z,18
2019-05-29T16:23:00.564Z,16
2019-05-29T16:24:00.577Z,15
2019-05-29T16:25:00.747Z,14
2019-05-29T16:26:00.848Z,15
2019-05-29T16:28:00.564Z,16
2019-05-29T16:29:00.567Z,17
2019-05-29T16:30:00.606Z,20
2019-05-29T16:31:00.565Z,18
2019-05-29T16:32:00.733Z,16
2019-05-29T16:33:00.564Z,17
2019-05-29T16:34:00.575Z,16
2019-05-29T16:35:00.608Z,15
2019-05-29T16:36:00.569Z,16
2019-05-29T16:37:00.569Z,18
2019-05-29T16:38:00.574Z,17
2019-05-29T16:40:00.609Z,18
2019-05-29T16:42:00.564Z,20
2019-05-29T16:45:00.598Z,20
2019-05-29T16:47:00.574Z,19
2019-05-29T16:48:00.568Z,22
2019-05-29T16:51:00.572Z,21
2019-05-29T16:52:00.571Z,23
2019-05-29T16:53:00.567Z,21
2019-05-29T16:54:00.576Z,20
2019-05-29T16:55:00.658Z,18
2019-05-29T16:57:00.600Z,16
2019-05-29T16:58:00.567Z,17
2019-05-29T17:00:00.567Z,18
2019-05-29T17:01:00.570Z,17
2019-05-29T17:04:00.570Z,16
2019-05-29T17:05:00.568Z,15
2019-05-29T17:06:00.571Z,16
2019-05-29T17:07:00.571Z,15
2019-05-29T17:11:04.015Z,14
2019-05-29T17:12:00.808Z,15
2019-05-29T17:13:00.593Z,14
2019-05-29T17:14:02.240Z,15
2019-05-29T17:15:00.571Z,16
2019-05-29T17:16:00.569Z,15
2019-05-29T17:18:00.591Z,16
2019-05-29T17:21:00.570Z,17
2019-05-29T17:22:00.567Z,18
2019-05-29T17:23:00.615Z,19
2019-05-29T17:25:00.567Z,20
2019-05-29T17:26:09.956Z,21
2019-05-29T17:27:00.571Z,20
2019-05-29T17:28:00.599Z,19
2019-05-29T17:30:00.581Z,18
2019-05-29T17:31:02.283Z,17
2019-05-29T17:32:00.567Z,15
2019-05-29T17:33:00.605Z,16
2019-05-29T17:34:00.568Z,14
2019-05-29T17:36:00.577Z,15
2019-05-29T17:37:00.572Z,17
2019-05-29T17:38:00.607Z,16
2019-05-29T17:41:00.574Z,15
2019-05-29T17:43:00.589Z,16
2019-05-29T17:44:00.579Z,15
2019-05-29T17:45:00.596Z,16
2019-05-29T17:47:00.565Z,18
2019-05-29T17:48:00.855Z,17
2019-05-29T17:49:00.566Z,18
2019-05-29T17:50:00.593Z,16
2019-05-29T17:52:00.566Z,14
2019-05-29T17:54:00.568Z,13
2019-05-29T17:56:00.566Z,15
2019-05-29T17:57:00.638Z,14
2019-05-29T17:58:00.567Z,15
2019-05-29T17:59:01.471Z,14
2019-05-29T18:00:00.717Z,15
2019-05-29T18:01:00.570Z,14
2019-05-29T18:03:00.569Z,16
2019-05-29T18:04:00.719Z,17
2019-05-29T18:06:00.565Z,18
2019-05-29T18:10:00.565Z,20
2019-05-29T18:11:00.600Z,19
2019-05-29T18:12:00.567Z,20
2019-05-29T18:14:03.930Z,21
2019-05-29T18:15:00.590Z,19
2019-05-29T18:18:00.569Z,20
2019-05-29T18:19:00.571Z,19
2019-05-29T18:20:00.569Z,20
2019-05-29T18:23:00.577Z,18
2019-05-29T18:25:00.569Z,17
2019-05-29T18:26:00.570Z,18
2019-05-29T18:27:00.572Z,20
2019-05-29T18:28:00.727Z,19
2019-05-29T18:29:00.853Z,18
2019-05-29T18:30:00.571Z,17
2019-05-29T18:31:00.572Z,16
2019-05-29T18:32:00.571Z,14
2019-05-29T18:33:00.598Z,15
2019-05-29T18:34:00.570Z,14
2019-05-29T18:35:01.519Z,15
2019-05-29T18:37:00.573Z,16
2019-05-29T18:39:00.572Z,18
2019-05-29T18:40:00.616Z,17
2019-05-29T18:41:00.579Z,18
2019-05-29T18:45:00.708Z,18
2019-05-29T18:46:00.907Z,15
2019-05-29T18:48:00.575Z,16
2019-05-29T18:50:01.189Z,17
2019-05-29T18:51:00.575Z,19
2019-05-29T18:53:00.575Z,18
2019-05-29T18:55:00.608Z,19
2019-05-29T18:56:02.087Z,18
2019-05-29T18:57:14.238Z,17
2019-05-29T18:58:01.995Z,16
2019-05-29T19:00:00.610Z,15
2019-05-29T19:01:00.579Z,14
2019-05-29T19:02:00.585Z,16
2019-05-29T19:03:00.580Z,18
2019-05-29T19:06:01.001Z,20
2019-05-29T19:07:00.584Z,18
2019-05-29T19:08:00.579Z,17
2019-05-29T19:09:00.581Z,14
2019-05-29T19:10:00.635Z,13
2019-05-29T19:12:00.585Z,14
2019-05-29T19:13:00.584Z,16
2019-05-29T19:15:00.598Z,16
2019-05-29T19:16:00.708Z,15
2019-05-29T19:18:00.584Z,14
2019-05-29T19:19:00.934Z,16
2019-05-29T19:20:00.588Z,17
2019-05-29T19:23:00.582Z,19
2019-05-29T19:26:00.627Z,20
2019-05-29T19:27:00.885Z,19
2019-05-29T19:28:00.712Z,18
2019-05-29T19:29:00.581Z,16
2019-05-29T19:30:01.008Z,15
2019-05-29T19:33:00.581Z,14
2019-05-29T19:34:00.587Z,15
2019-05-29T19:35:00.586Z,17
2019-05-29T19:36:01.092Z,18
2019-05-29T19:37:00.615Z,17
2019-05-29T19:38:00.582Z,18
2019-05-29T19:39:00.580Z,15
2019-05-29T19:40:00.585Z,14
2019-05-29T19:41:00.581Z,13
2019-05-29T19:42:00.606Z,15
2019-05-29T19:44:00.660Z,17
2019-05-29T19:45:00.585Z,17
2019-05-29T19:46:00.581Z,18
2019-05-29T19:47:00.606Z,17
2019-05-29T19:50:00.581Z,18
2019-05-29T19:51:00.682Z,17
2019-05-29T19:52:00.620Z,16
2019-05-29T19:53:00.582Z,18
2019-05-29T19:55:00.581Z,17
2019-05-29T19:56:01.948Z,19
2019-05-29T19:57:00.612Z,21
2019-05-29T19:58:00.582Z,20
2019-05-29T19:59:00.583Z,19
2019-05-29T20:00:00.582Z,19
2019-05-29T20:01:00.583Z,17
2019-05-29T20:03:01.227Z,18
2019-05-29T20:04:00.582Z,20
2019-05-29T20:05:00.587Z,19
2019-05-29T20:06:01.023Z,18
2019-05-29T20:07:00.616Z,17
2019-05-29T20:08:00.586Z,16
2019-05-29T20:13:00.586Z,15
2019-05-29T20:14:00.586Z,16
2019-05-29T20:15:00.587Z,17
2019-05-29T20:18:00.587Z,18
2019-05-29T20:20:00.591Z,19
2019-05-29T20:21:00.589Z,20
2019-05-29T20:22:00.594Z,19
2019-05-29T20:24:00.587Z,20
2019-05-29T20:25:00.588Z,19
2019-05-29T20:26:00.590Z,18
2019-05-29T20:28:06.207Z,17
2019-05-29T20:29:00.589Z,16
2019-05-29T20:30:00.590Z,17
2019-05-29T20:32:00.596Z,18
2019-05-29T20:33:00.595Z,19
2019-05-29T20:35:00.591Z,18
2019-05-29T20:38:00.595Z,17
2019-05-29T20:39:00.594Z,16
2019-05-29T20:40:00.592Z,17
2019-05-29T20:41:00.592Z,18
2019-05-29T20:42:00.591Z,17
2019-05-29T20:43:00.598Z,19
2019-05-29T20:44:00.591Z,20
2019-05-29T20:45:00.592Z,21
2019-05-29T20:46:00.595Z,20
2019-05-29T20:47:00.619Z,19